createdAt,value
2022-08-22T00:01:50.898Z,20015.03
2022-08-22T00:02:45.979Z,20695.97
2022-08-22T00:03:04.187Z,20460.19
2022-08-22T00:04:29.461Z,20002.84
2022-08-22T00:07:13.915Z,19978.47
2022-08-22T00:09:54.818Z,20010.97
2022-08-22T00:12:29.777Z,19956.09
2022-08-22T00:15:07.888Z,19958.13
2022-08-22T00:18:00.432Z,20000.81
2022-08-22T00:20:45.907Z,19960.16
2022-08-22T00:23:23.040Z,19903.25
2022-08-22T00:25:59.919Z,19937.81
2022-08-22T00:28:37.251Z,19872.78
2022-08-22T00:31:24.332Z,19884.97
2022-08-22T00:34:03.543Z,19854.50
2022-08-22T00:36:43.261Z,19854.50
2022-08-22T00:39:22.035Z,19828.06
2022-08-22T00:42:36.541Z,19858.56
2022-08-22T00:45:29.194Z,19815.88
2022-08-22T00:48:20.504Z,19858.56
2022-08-22T00:51:29.236Z,19824.00
2022-08-22T00:54:17.905Z,19807.75
2022-08-22T00:57:30.915Z,19807.75
2022-08-22T01:00:18.495Z,19797.59
2022-08-22T01:03:47.675Z,19789.44
2022-08-22T01:06:40.140Z,19787.41
2022-08-22T01:09:24.412Z,19803.69
2022-08-22T01:12:46.529Z,19783.34
2022-08-22T01:15:22.801Z,19740.69
2022-08-22T01:18:32.995Z,19693.94
2022-08-22T01:21:56.477Z,19738.66
2022-08-22T01:25:30.542Z,19708.16
2022-08-22T01:28:32.644Z,19687.84
2022-08-22T01:31:57.783Z,19651.25
2022-08-22T01:35:25.040Z,19643.13
2022-08-22T01:38:40.837Z,19622.81
2022-08-22T01:41:41.812Z,19614.66
2022-08-22T01:44:41.111Z,19620.78
2022-08-22T01:47:19.217Z,19590.28
2022-08-22T01:49:55.224Z,19535.41
2022-08-22T01:52:41.239Z,19574.03
2022-08-22T01:55:20.666Z,19525.25
2022-08-22T01:57:56.710Z,19443.97
2022-08-22T02:00:35.379Z,19409.41
2022-08-22T02:03:27.010Z,19399.25
2022-08-22T02:06:06.574Z,19399.25
2022-08-22T02:08:48.326Z,19358.63
2022-08-22T02:11:41.399Z,19338.28
2022-08-22T02:14:27.264Z,19358.63
2022-08-22T02:17:17.048Z,19340.31
2022-08-22T02:19:59.171Z,19287.50
2022-08-22T02:22:44.559Z,19283.44
2022-08-22T02:25:22.672Z,19281.41
2022-08-22T02:28:03.419Z,19220.44
2022-08-22T02:30:51.542Z,19232.63
2022-08-22T02:33:34.852Z,19171.66
2022-08-22T02:36:14.535Z,19147.28
2022-08-22T02:38:59.532Z,19145.25
2022-08-22T02:41:44.848Z,19082.25
2022-08-22T02:44:22.047Z,19049.75
2022-08-22T02:46:59.854Z,19082.25
2022-08-22T02:49:43.826Z,19133.06
2022-08-22T02:52:19.551Z,19189.97
2022-08-22T02:55:00.901Z,19147.28
2022-08-22T02:57:39.859Z,19088.34
2022-08-22T03:00:29.655Z,19086.31
2022-08-22T03:03:16.115Z,19057.88
2022-08-22T03:06:01.643Z,18984.72
2022-08-22T03:08:34.375Z,18982.69
2022-08-22T03:11:18.667Z,18984.72
2022-08-22T03:14:04.393Z,18982.69
2022-08-22T03:16:40.677Z,18970.50
2022-08-22T03:19:18.466Z,18958.31
2022-08-22T03:21:58.684Z,18935.97
2022-08-22T03:24:36.160Z,18864.84
2022-08-22T03:27:15.026Z,18858.75
2022-08-22T03:30:07.027Z,18868.91
2022-08-22T03:32:59.049Z,18875.00
2022-08-22T03:35:40.153Z,18846.56
2022-08-22T03:38:23.803Z,18834.38
2022-08-22T03:41:24.114Z,18856.72
2022-08-22T03:44:38.944Z,18797.78
2022-08-22T03:47:53.928Z,18812.00
2022-08-22T03:51:00.929Z,18840.47
2022-08-22T03:54:15.346Z,18816.06
2022-08-22T03:57:40.741Z,18820.16
2022-08-22T04:00:39.161Z,18818.09
2022-08-22T04:03:53.622Z,18761.22
2022-08-22T04:07:05.919Z,18712.47
2022-08-22T04:10:15.624Z,18694.16
2022-08-22T04:13:15.942Z,18677.91
2022-08-22T04:16:21.108Z,18688.06
2022-08-22T04:19:24.737Z,18679.94
2022-08-22T04:22:38.094Z,18728.72
2022-08-22T04:25:13.188Z,18661.66
2022-08-22T04:27:53.209Z,18669.78
2022-08-22T04:30:31.413Z,18702.28
2022-08-22T04:33:08.264Z,18704.31
2022-08-22T04:35:46.535Z,18700.25
2022-08-22T04:38:25.181Z,18667.75
2022-08-22T04:41:04.530Z,18663.69
2022-08-22T04:43:40.776Z,18708.41
2022-08-22T04:46:20.887Z,18673.84
2022-08-22T04:48:56.431Z,18728.72
2022-08-22T04:51:35.229Z,18789.66
2022-08-22T04:54:42.375Z,18718.56
2022-08-22T04:57:40.686Z,18692.13
2022-08-22T05:00:13.463Z,18761.22
2022-08-22T05:02:51.667Z,18787.63
2022-08-22T05:05:26.767Z,18834.38
2022-08-22T05:08:00.963Z,18850.63
2022-08-22T05:10:37.657Z,18795.75
2022-08-22T05:13:16.190Z,18826.25
2022-08-22T05:15:49.589Z,18828.28
2022-08-22T05:18:25.564Z,18870.94
2022-08-22T05:21:03.451Z,18891.25
2022-08-22T05:23:41.198Z,18848.59
2022-08-22T05:26:12.493Z,18895.31
2022-08-22T05:28:47.566Z,18891.25
2022-08-22T05:31:29.932Z,18964.41
2022-08-22T05:34:05.223Z,18956.28
2022-08-22T05:36:40.919Z,19072.09
2022-08-22T05:39:17.696Z,19031.47
2022-08-22T05:41:47.822Z,19084.28
2022-08-22T05:44:22.014Z,19072.09
2022-08-22T05:47:00.965Z,19094.44
2022-08-22T05:49:38.973Z,19151.34
2022-08-22T05:52:18.912Z,19204.19
2022-08-22T05:54:58.230Z,19309.84
2022-08-22T05:57:33.702Z,19301.72
2022-08-22T06:00:09.749Z,19332.19
2022-08-22T06:02:59.288Z,19551.69
2022-08-22T06:05:34.280Z,19569.97
2022-08-22T06:08:09.168Z,19574.03
2022-08-22T06:10:46.297Z,19557.78
2022-08-22T06:13:30.297Z,19616.72
2022-08-22T06:16:11.737Z,19608.56
2022-08-22T06:18:44.612Z,19541.50
2022-08-22T06:21:21.533Z,19594.34
2022-08-22T06:23:57.494Z,19592.31
2022-08-22T06:26:34.665Z,19628.91
2022-08-22T06:29:04.616Z,19565.91
2022-08-22T06:31:37.336Z,19632.97
2022-08-22T06:34:13.391Z,19639.06
2022-08-22T06:36:49.392Z,19582.16
2022-08-22T06:39:23.399Z,19624.84
2022-08-22T06:42:01.108Z,19616.72
2022-08-22T06:44:34.291Z,19679.72
2022-08-22T06:47:10.321Z,19683.78
2022-08-22T06:49:41.174Z,19657.34
2022-08-22T06:52:15.130Z,19671.56
2022-08-22T06:54:50.337Z,19647.19
2022-08-22T06:57:34.126Z,19671.56
2022-08-22T07:00:09.512Z,19675.63
2022-08-22T07:02:45.112Z,19708.16
2022-08-22T07:05:20.053Z,19736.59
2022-08-22T07:07:50.092Z,19815.88
2022-08-22T07:10:22.518Z,19838.22
2022-08-22T07:12:57.404Z,19919.53
2022-08-22T07:15:36.561Z,19907.31
2022-08-22T07:18:09.781Z,20000.81
2022-08-22T07:20:45.194Z,20025.22
2022-08-22T07:23:31.582Z,20157.31
2022-08-22T07:26:21.644Z,20358.56
2022-08-22T07:28:58.503Z,20517.09
2022-08-22T07:31:38.982Z,20474.41
2022-08-22T07:34:29.263Z,20580.13
2022-08-22T07:37:05.585Z,20618.72
2022-08-22T07:39:45.761Z,20683.78
2022-08-22T07:42:19.293Z,20822.03
2022-08-22T07:45:08.443Z,20716.31
2022-08-22T07:48:03.399Z,20777.28
2022-08-22T07:50:39.352Z,20710.22
2022-08-22T07:53:30.864Z,20732.56
2022-08-22T07:56:03.825Z,20750.88
2022-08-22T07:58:36.950Z,20744.78
2022-08-22T08:01:11.002Z,20746.81
2022-08-22T08:03:40.434Z,20748.84
2022-08-22T08:06:11.154Z,20840.31
2022-08-22T08:08:45.096Z,20848.44
2022-08-22T08:11:18.918Z,20846.41
2022-08-22T08:13:54.188Z,20915.53
2022-08-22T08:16:28.218Z,20970.41
2022-08-22T08:19:01.029Z,20941.97
2022-08-22T08:21:42.450Z,20950.09
2022-08-22T08:24:20.503Z,20992.78
2022-08-22T08:27:18.090Z,21027.34
2022-08-22T08:29:56.264Z,21063.94
2022-08-22T08:32:30.754Z,21084.28
2022-08-22T08:35:00.421Z,21126.97
2022-08-22T08:37:41.089Z,21094.44
2022-08-22T08:40:36.441Z,21118.84
2022-08-22T08:43:29.561Z,21151.34
2022-08-22T08:46:29.480Z,21187.97
2022-08-22T08:49:39.626Z,21173.72
2022-08-22T08:52:54.155Z,21236.75
2022-08-22T08:55:42.184Z,21259.13
2022-08-22T08:58:43.272Z,21314.00
2022-08-22T09:01:47.622Z,21395.34
2022-08-22T09:04:45.607Z,21403.47
2022-08-22T09:07:44.822Z,21427.88
2022-08-22T09:10:37.047Z,21419.72
2022-08-22T09:13:40.972Z,21470.56
2022-08-22T09:16:51.291Z,21480.72
2022-08-22T09:20:00.787Z,21501.06
2022-08-22T09:23:18.804Z,21545.78
2022-08-22T09:25:56.520Z,21562.06
2022-08-22T09:28:36.722Z,21582.38
2022-08-22T09:31:44.919Z,21675.94
2022-08-22T09:34:29.989Z,21736.94
2022-08-22T09:37:21.936Z,21728.78
2022-08-22T09:40:03.893Z,21686.09
2022-08-22T09:42:46.404Z,21789.78
2022-08-22T09:45:47.907Z,21781.66
2022-08-22T09:48:44.461Z,21785.72
2022-08-22T09:51:33.178Z,21887.41
2022-08-22T09:54:24.780Z,21903.66
2022-08-22T09:57:15.907Z,21858.94
2022-08-22T10:00:16.015Z,21901.63
2022-08-22T10:02:57.938Z,21899.59
2022-08-22T10:05:43.892Z,21913.84
2022-08-22T10:08:32.145Z,21991.09
2022-08-22T10:11:28.966Z,21989.06
2022-08-22T10:14:04.384Z,22005.34
2022-08-22T10:16:59.111Z,22078.53
2022-08-22T10:19:36.441Z,22066.34
2022-08-22T10:22:30.899Z,22039.91
2022-08-22T10:25:23.857Z,22031.78
2022-08-22T10:28:10.508Z,22029.75
2022-08-22T10:30:53.756Z,22013.47
2022-08-22T10:33:30.690Z,22046.00
2022-08-22T10:36:11.889Z,22133.44
2022-08-22T10:38:48.132Z,22094.81
2022-08-22T10:41:32.706Z,22048.03
2022-08-22T10:44:11.247Z,22043.97
2022-08-22T10:46:57.271Z,22043.97
2022-08-22T10:49:33.306Z,21989.06
2022-08-22T10:52:17.270Z,22117.19
2022-08-22T10:54:53.076Z,22127.34
2022-08-22T10:57:57.149Z,22182.25
2022-08-22T11:00:49.743Z,22257.50
2022-08-22T11:03:26.788Z,22212.75
2022-08-22T11:06:01.176Z,22220.91
2022-08-22T11:08:55.943Z,22224.97
2022-08-22T11:11:39.728Z,22216.81
2022-08-22T11:14:58.954Z,22121.25
2022-08-22T11:18:21.160Z,22178.19
2022-08-22T11:21:02.487Z,22216.81
2022-08-22T11:23:46.464Z,22245.28
2022-08-22T11:26:46.652Z,22147.69
2022-08-22T11:29:44.687Z,22084.66
2022-08-22T11:32:25.578Z,22037.88
2022-08-22T11:35:09.314Z,22058.22
2022-08-22T11:37:54.783Z,22070.41
2022-08-22T11:40:36.838Z,22064.31
2022-08-22T11:43:37.967Z,21993.13
2022-08-22T11:46:22.819Z,22058.22
2022-08-22T11:49:33.092Z,21974.84
2022-08-22T11:52:30.821Z,21966.69
2022-08-22T11:55:21.557Z,21903.66
2022-08-22T11:57:53.854Z,21946.38
2022-08-22T12:00:35.884Z,21962.63
2022-08-22T12:03:34.471Z,21989.06
2022-08-22T12:06:21.931Z,22031.78
2022-08-22T12:09:19.828Z,22176.16
2022-08-22T12:12:09.869Z,22245.28
2022-08-22T12:14:48.150Z,22231.06
2022-08-22T12:18:01.992Z,22216.81
2022-08-22T12:21:16.291Z,22125.31
2022-08-22T12:24:29.630Z,22139.56
2022-08-22T12:27:33.355Z,22125.31
2022-08-22T12:30:14.398Z,22210.72
2022-08-22T12:33:28.018Z,22235.13
2022-08-22T12:36:28.737Z,22353.09
2022-08-22T12:39:27.301Z,22387.66
2022-08-22T12:42:23.585Z,22353.09
2022-08-22T12:45:19.996Z,22379.53
2022-08-22T12:48:05.348Z,22363.25
2022-08-22T12:50:48.931Z,22432.41
2022-08-22T12:53:53.797Z,22416.13
2022-08-22T12:56:38.409Z,22446.63
2022-08-22T12:59:27.335Z,22346.97
2022-08-22T13:02:03.678Z,22487.31
2022-08-22T13:04:36.823Z,22507.66
2022-08-22T13:07:19.679Z,22560.53
2022-08-22T13:09:57.693Z,22566.63
2022-08-22T13:12:33.012Z,22546.28
2022-08-22T13:15:25.442Z,22523.91
2022-08-22T13:18:08.707Z,22438.50
2022-08-22T13:20:50.966Z,22395.78
2022-08-22T13:23:27.148Z,22473.06
2022-08-22T13:26:07.616Z,22491.38
2022-08-22T13:28:45.320Z,22517.81
2022-08-22T13:31:25.907Z,22523.91
2022-08-22T13:34:01.593Z,22534.09
2022-08-22T13:36:35.581Z,22475.09
2022-08-22T13:39:24.325Z,22525.94
2022-08-22T13:41:56.634Z,22477.13
2022-08-22T13:44:29.737Z,22440.53
2022-08-22T13:47:14.635Z,22562.56
2022-08-22T13:49:47.856Z,22501.53
2022-08-22T13:52:30.483Z,22570.69
2022-08-22T13:55:09.212Z,22586.97
2022-08-22T13:57:51.761Z,22523.91
2022-08-22T14:01:19.710Z,22534.09
2022-08-22T14:03:58.528Z,22440.53
2022-08-22T14:06:41.401Z,22395.78
2022-08-22T14:09:31.211Z,22399.84
2022-08-22T14:12:13.598Z,22342.91
2022-08-22T14:14:46.429Z,22349.00
2022-08-22T14:17:24.028Z,22338.84
2022-08-22T14:20:01.775Z,22304.28
2022-08-22T14:22:35.818Z,22285.97
2022-08-22T14:25:10.302Z,22302.25
2022-08-22T14:27:57.984Z,22351.03
2022-08-22T14:30:31.153Z,22336.81
2022-08-22T14:33:21.716Z,22326.66
2022-08-22T14:35:58.096Z,22285.97
2022-08-22T14:38:39.624Z,22285.97
2022-08-22T14:41:56.135Z,22275.81
2022-08-22T14:44:26.119Z,22316.47
2022-08-22T14:46:58.981Z,22285.97
2022-08-22T14:49:38.190Z,22324.59
2022-08-22T14:52:19.577Z,22277.84
2022-08-22T14:54:48.432Z,22294.09
2022-08-22T14:57:20.237Z,22310.38
2022-08-22T14:59:53.227Z,22298.16
2022-08-22T15:02:30.327Z,22306.31
2022-08-22T15:05:12.963Z,22314.44
2022-08-22T15:07:43.086Z,22220.91
2022-08-22T15:10:25.957Z,22204.63
2022-08-22T15:13:03.921Z,22202.59
2022-08-22T15:15:41.203Z,22155.81
2022-08-22T15:18:36.535Z,22218.84
2022-08-22T15:21:10.079Z,22200.56
2022-08-22T15:23:45.283Z,22204.63
2022-08-22T15:26:25.717Z,22180.22
2022-08-22T15:29:17.330Z,22104.97
2022-08-22T15:31:47.484Z,22147.69
2022-08-22T15:34:25.312Z,22131.41
2022-08-22T15:37:30.064Z,22098.88
2022-08-22T15:40:12.666Z,22104.97
2022-08-22T15:42:46.632Z,22084.66
2022-08-22T15:45:40.606Z,22123.28
2022-08-22T15:48:24.715Z,22141.59
2022-08-22T15:51:01.363Z,22133.44
2022-08-22T15:53:53.858Z,22076.50
2022-08-22T15:56:29.029Z,22041.94
2022-08-22T15:59:48.148Z,22052.09
2022-08-22T16:02:34.921Z,22058.22
2022-08-22T16:05:27.493Z,21974.84
2022-08-22T16:08:07.342Z,22041.94
2022-08-22T16:10:41.427Z,22013.47
2022-08-22T16:13:38.223Z,21993.13
2022-08-22T16:16:13.329Z,21934.16
2022-08-22T16:19:19.323Z,21940.25
2022-08-22T16:22:18.949Z,21889.44
2022-08-22T16:25:10.348Z,21842.66
2022-08-22T16:27:58.286Z,21850.78
2022-08-22T16:30:39.772Z,21830.47
2022-08-22T16:33:18.304Z,21793.84
2022-08-22T16:36:42.371Z,21810.13
2022-08-22T16:39:33.262Z,21743.03
2022-08-22T16:42:26.016Z,21777.59
2022-08-22T16:45:11.858Z,21802.00
2022-08-22T16:47:52.866Z,21753.19
2022-08-22T16:50:34.422Z,21698.28
2022-08-22T16:53:10.016Z,21700.31
2022-08-22T16:56:18.045Z,21712.53
2022-08-22T16:59:22.486Z,21675.94
2022-08-22T17:02:33.271Z,21639.31
2022-08-22T17:05:23.488Z,21667.78
2022-08-22T17:08:28.382Z,21680.00
2022-08-22T17:11:12.716Z,21629.16
2022-08-22T17:14:17.919Z,21639.31
2022-08-22T17:17:11.589Z,21631.19
2022-08-22T17:19:57.684Z,21590.53
2022-08-22T17:22:40.148Z,21623.06
2022-08-22T17:25:26.160Z,21600.69
2022-08-22T17:28:13.205Z,21596.63
2022-08-22T17:30:51.334Z,21545.78
2022-08-22T17:33:56.193Z,21570.19
2022-08-22T17:36:48.249Z,21551.91
2022-08-22T17:39:42.994Z,21515.28
2022-08-22T17:42:37.555Z,21584.44
2022-08-22T17:45:18.917Z,21517.31
2022-08-22T17:47:56.253Z,21492.94
2022-08-22T17:50:35.308Z,21511.22
2022-08-22T17:53:10.293Z,21468.53
2022-08-22T17:56:01.278Z,21480.72
2022-08-22T17:58:43.654Z,21476.66
2022-08-22T18:01:22.687Z,21440.06
2022-08-22T18:04:00.312Z,21411.59
2022-08-22T18:06:36.556Z,21423.81
2022-08-22T18:09:19.649Z,21395.34
2022-08-22T18:11:55.514Z,21395.34
2022-08-22T18:14:37.146Z,21364.84
2022-08-22T18:17:21.441Z,21419.72
2022-08-22T18:20:03.446Z,21360.78
2022-08-22T18:22:41.034Z,21358.75
2022-08-22T18:25:31.413Z,21332.31
2022-08-22T18:28:11.001Z,21338.41
2022-08-22T18:30:55.819Z,21307.91
2022-08-22T18:33:34.876Z,21289.59
2022-08-22T18:36:12.683Z,21346.53
2022-08-22T18:38:54.906Z,21289.59
2022-08-22T18:41:33.286Z,21287.56
2022-08-22T18:44:12.291Z,21277.41
2022-08-22T18:46:46.330Z,21297.75
2022-08-22T18:49:46.012Z,21273.34
2022-08-22T18:52:39.816Z,21269.28
2022-08-22T18:55:50.300Z,21250.97
2022-08-22T18:58:45.730Z,21265.22
2022-08-22T19:01:50.708Z,21246.91
2022-08-22T19:04:46.996Z,21218.44
2022-08-22T19:07:41.784Z,21222.53
2022-08-22T19:10:46.167Z,21194.06
2022-08-22T19:13:50.139Z,21155.44
2022-08-22T19:17:12.824Z,21118.84
2022-08-22T19:20:17.116Z,21131.03
2022-08-22T19:22:45.878Z,21120.88
2022-08-22T19:25:26.403Z,21124.94
2022-08-22T19:28:26.703Z,21163.56
2022-08-22T19:31:24.199Z,21106.63
2022-08-22T19:34:17.623Z,21061.91
2022-08-22T19:37:07.402Z,21086.31
2022-08-22T19:39:55.505Z,21070.03
2022-08-22T19:42:34.641Z,21120.88
2022-08-22T19:45:21.489Z,21072.06
2022-08-22T19:48:10.483Z,21043.59
2022-08-22T19:50:42.119Z,21053.78
2022-08-22T19:53:41.105Z,21049.72
2022-08-22T19:56:28.458Z,21088.34
2022-08-22T19:59:24.055Z,21029.38
2022-08-22T20:02:06.539Z,21025.31
2022-08-22T20:05:22.195Z,21009.03
2022-08-22T20:08:19.080Z,21029.38
2022-08-22T20:11:03.902Z,21041.56
2022-08-22T20:13:36.598Z,21047.69
2022-08-22T20:16:16.144Z,21035.47
2022-08-22T20:19:08.484Z,21045.63
2022-08-22T20:21:49.036Z,20964.31
2022-08-22T20:24:27.254Z,20990.75
2022-08-22T20:27:15.609Z,20966.34
2022-08-22T20:29:53.910Z,20990.75
2022-08-22T20:32:26.279Z,20984.66
2022-08-22T20:35:01.528Z,20970.41
2022-08-22T20:38:03.311Z,20954.16
2022-08-22T20:40:56.774Z,20935.88
2022-08-22T20:43:35.143Z,20944.00
2022-08-22T20:46:27.521Z,20952.13
2022-08-22T20:48:57.509Z,20972.47
2022-08-22T20:51:30.351Z,20964.31
2022-08-22T20:54:02.397Z,20917.56
2022-08-22T20:56:52.791Z,20895.19
2022-08-22T20:59:29.551Z,20874.88
2022-08-22T21:02:11.043Z,20860.66
2022-08-22T21:04:57.984Z,20866.75
2022-08-22T21:07:33.817Z,20878.94
2022-08-22T21:10:25.749Z,20913.50
2022-08-22T21:13:13.123Z,20897.25
2022-08-22T21:15:44.870Z,20929.75
2022-08-22T21:18:24.761Z,20944.00
2022-08-22T21:20:53.817Z,20858.59
2022-08-22T21:23:22.128Z,20834.22
2022-08-22T21:26:01.267Z,20878.94
2022-08-22T21:28:34.505Z,20830.16
2022-08-22T21:31:13.486Z,20805.75
2022-08-22T21:33:49.814Z,20801.69
2022-08-22T21:36:22.916Z,20801.69
2022-08-22T21:38:56.834Z,20852.50
2022-08-22T21:41:33.375Z,20826.09
2022-08-22T21:44:24.789Z,20787.47
2022-08-22T21:46:53.896Z,20783.41
2022-08-22T21:49:29.253Z,20752.91
2022-08-22T21:51:57.685Z,20805.75
2022-08-22T21:54:42.609Z,20797.63
2022-08-22T21:57:36.482Z,20852.50
2022-08-22T22:00:12.838Z,20809.81
2022-08-22T22:02:43.849Z,20779.31
2022-08-22T22:05:16.984Z,20795.59
2022-08-22T22:07:48.393Z,20809.81
2022-08-22T22:10:20.616Z,20805.75
2022-08-22T22:12:52.262Z,20797.63
2022-08-22T22:15:25.515Z,20773.22
2022-08-22T22:17:54.446Z,20765.09
2022-08-22T22:20:27.582Z,20746.81
2022-08-22T22:22:56.435Z,20769.16
2022-08-22T22:25:40.825Z,20738.66
2022-08-22T22:28:15.782Z,20752.91
2022-08-22T22:30:45.442Z,20663.47
2022-08-22T22:33:13.841Z,20710.22
2022-08-22T22:35:43.434Z,20691.91
2022-08-22T22:38:13.475Z,20740.69
2022-08-22T22:40:42.475Z,20718.34
2022-08-22T22:43:12.073Z,20700.03
2022-08-22T22:45:41.048Z,20683.78
2022-08-22T22:48:10.057Z,20622.81
2022-08-22T22:50:40.822Z,20590.28
2022-08-22T22:53:11.178Z,20565.88
2022-08-22T22:55:41.762Z,20563.84
2022-08-22T22:58:10.505Z,20543.53
2022-08-22T23:00:38.731Z,20531.31
2022-08-22T23:03:07.490Z,20549.63
2022-08-22T23:05:36.785Z,20559.78
2022-08-22T23:08:06.050Z,20511.00
2022-08-22T23:10:35.515Z,20504.91
2022-08-22T23:13:05.632Z,20492.72
2022-08-22T23:15:33.778Z,20478.47
2022-08-22T23:18:02.367Z,20496.78
2022-08-22T23:20:30.500Z,20504.91
2022-08-22T23:22:59.503Z,20492.72
2022-08-22T23:25:28.069Z,20486.59
2022-08-22T23:28:00.107Z,20474.41
2022-08-22T23:30:28.350Z,20431.72
2022-08-22T23:32:56.519Z,20476.44
2022-08-22T23:35:24.688Z,20431.72
2022-08-22T23:37:52.878Z,20435.78
2022-08-22T23:40:21.161Z,20405.31
2022-08-22T23:42:49.320Z,20445.94
2022-08-22T23:45:18.978Z,20433.75
2022-08-22T23:47:47.478Z,20452.06
2022-08-22T23:50:15.698Z,20415.47
2022-08-22T23:52:43.806Z,20356.50
2022-08-22T23:55:11.984Z,20395.13
2022-08-22T23:57:40.130Z,20387.00
